Terminal Aerodrome Forecast
Issued by NWS Mt. Holly, NJ

Home | Current Version | Previous Version | Text Only | Print | Product List | Glossary On
Versions: 1 2 3 4 5 6 7 8 9 10 11 12 13 14 15 16 17
000
FTUS41 KPHI 301404 AAB
TAFRDG
TAF AMD
KRDG 301404Z 3014/3112 27005KT P6SM SCT025 BKN090
      TEMPO 3015/3018 BKN025
     FM310200 VRB03KT 4SM BR SCT015 BKN250=

USA.gov is the U.S. government's official web portal to all federal, state and local government web resources and services.